Time;durP1;ratioP1;P1;durP2;ratioP2;P2;SDS_P1;SDS_P2;PMS_P1;PMS_P2;Temp;Humidity;BMP_temperature;BMP_pressure;BME280_temperature;BME280_humidity;BME280_pressure;Samples;Min_cycle;Max_cycle;Signal;HPM_P1;HPM_P2
2022/11/13 00:01:55;;;;;;;;;48.50;37.75;;;;;;;;5053839;28;45386;-80
2022/11/13 00:04:21;;;;;;;;;43.33;36.33;;;;;;;;5054117;28;45390;-81
2022/11/13 00:06:46;;;;;;;;;48.33;39.33;;;;;;;;5053450;28;46418;-78
2022/11/13 00:09:11;;;;;;;;;49.50;40.00;;;;;;;;5053319;28;45381;-79
2022/11/13 00:11:37;;;;;;;;;49.25;40.50;;;;;;;;5052584;28;45426;-78
2022/11/13 00:14:02;;;;;;;;;46.67;39.00;;;;;;;;5051648;28;46225;-78
2022/11/13 00:16:27;;;;;;;;;46.00;36.00;;;;;;;;5052392;28;46129;-78
2022/11/13 00:18:53;;;;;;;;;36.00;31.00;;;;;;;;5051999;28;45588;-79
2022/11/13 00:21:20;;;;;;;;;45.67;37.00;;;;;;;;5056289;28;45405;-77
2022/11/13 00:23:45;;;;;;;;;46.33;36.00;;;;;;;;5060497;28;45434;-80
2022/11/13 00:26:15;;;;;;;;;39.67;33.00;;;;;;;;5051724;28;46903;-79
2022/11/13 00:28:40;;;;;;;;;14.00;13.00;;;;;;;;5049270;28;46233;-81
2022/11/13 00:31:06;;;;;;;;;43.67;34.67;;;;;;;;5052251;28;45453;-80
2022/11/13 00:33:32;;;;;;;;;47.00;36.33;;;;;;;;5051278;28;46713;-78
2022/11/13 00:36:09;;;;;;;;;38.67;34.00;;;;;;;;5052839;28;46042;-79
2022/11/13 00:38:35;;;;;;;;;42.00;33.67;;;;;;;;5049758;28;45857;-80
2022/11/13 00:41:00;;;;;;;;;39.00;33.00;;;;;;;;5049545;28;45749;-79
2022/11/13 00:43:26;;;;;;;;;39.67;34.67;;;;;;;;5053364;28;45939;-78
2022/11/13 00:45:52;;;;;;;;;48.33;36.67;;;;;;;;5052146;28;47029;-79
2022/11/13 00:48:17;;;;;;;;;43.67;36.00;;;;;;;;5052136;28;45456;-79
2022/11/13 00:50:43;;;;;;;;;38.67;31.33;;;;;;;;5052236;28;45493;-79
2022/11/13 00:53:08;;;;;;;;;46.00;37.00;;;;;;;;5048344;28;45542;-79
2022/11/13 00:55:33;;;;;;;;;35.00;32.33;;;;;;;;5063438;28;46175;-79
2022/11/13 00:57:58;;;;;;;;;35.33;32.00;;;;;;;;5048724;28;45376;-79
2022/11/13 01:00:23;;;;;;;;;40.33;33.33;;;;;;;;5054431;28;45424;-79
2022/11/13 01:02:49;;;;;;;;;38.67;35.00;;;;;;;;5074614;27;45378;-77
2022/11/13 01:05:14;;;;;;;;;44.00;34.67;;;;;;;;5074861;28;46061;-78
2022/11/13 01:07:39;;;;;;;;;36.67;32.00;;;;;;;;5055328;28;45882;-79
2022/11/13 01:10:05;;;;;;;;;42.33;36.00;;;;;;;;5073410;28;45354;-78
2022/11/13 01:12:30;;;;;;;;;46.00;36.33;;;;;;;;5054209;28;45863;-79
2022/11/13 01:14:56;;;;;;;;;42.33;36.00;;;;;;;;5044917;28;47015;-78
2022/11/13 01:17:21;;;;;;;;;41.33;34.67;;;;;;;;5054999;28;45501;-80
2022/11/13 01:19:47;;;;;;;;;34.67;31.33;;;;;;;;5055418;28;45542;-79
2022/11/13 01:22:12;;;;;;;;;40.00;31.33;;;;;;;;5055386;28;46998;-79
2022/11/13 01:24:37;;;;;;;;;38.00;32.67;;;;;;;;5073514;28;45777;-79
2022/11/13 01:27:03;;;;;;;;;26.33;21.33;;;;;;;;5062482;28;45501;-76
2022/11/13 01:29:28;;;;;;;;;35.33;29.33;;;;;;;;5062773;28;45485;-76
2022/11/13 01:31:53;;;;;;;;;31.67;30.00;;;;;;;;5053792;28;46125;-77
2022/11/13 01:34:18;;;;;;;;;37.00;30.00;;;;;;;;5071459;28;45441;-78
2022/11/13 01:36:43;;;;;;;;;34.00;29.67;;;;;;;;5066487;28;45994;-76
2022/11/13 01:39:10;;;;;;;;;37.00;31.33;;;;;;;;5072485;28;45752;-78
2022/11/13 01:41:35;;;;;;;;;39.67;31.33;;;;;;;;5073793;28;45685;-76
2022/11/13 01:44:00;;;;;;;;;31.33;29.67;;;;;;;;5074094;28;46803;-78
2022/11/13 01:46:30;;;;;;;;;29.33;25.67;;;;;;;;5056007;28;45866;-77
2022/11/13 01:49:00;;;;;;;;;32.67;28.33;;;;;;;;5069221;28;45749;-78
2022/11/13 01:51:31;;;;;;;;;30.67;28.00;;;;;;;;5069124;28;45837;-79
2022/11/13 01:53:57;;;;;;;;;31.67;29.67;;;;;;;;5059744;27;48010;-77
2022/11/13 01:56:22;;;;;;;;;34.33;28.67;;;;;;;;5071716;28;45759;-78
2022/11/13 01:58:52;;;;;;;;;29.67;26.33;;;;;;;;5073380;28;45509;-79
2022/11/13 02:01:17;;;;;;;;;30.67;29.33;;;;;;;;5073883;28;45417;-78
2022/11/13 02:03:42;;;;;;;;;29.00;28.00;;;;;;;;5063343;28;46045;-78
2022/11/13 02:06:08;;;;;;;;;34.33;27.00;;;;;;;;5045164;28;45388;-78
2022/11/13 02:08:33;;;;;;;;;36.00;31.00;;;;;;;;5073325;28;45773;-78
2022/11/13 02:10:59;;;;;;;;;37.00;31.33;;;;;;;;5072922;28;45666;-78
2022/11/13 02:13:24;;;;;;;;;37.67;32.00;;;;;;;;5072428;28;45402;-78
2022/11/13 02:15:50;;;;;;;;;36.33;31.67;;;;;;;;5064822;28;45348;-77
2022/11/13 02:18:16;;;;;;;;;36.33;32.00;;;;;;;;5049730;28;45643;-77
2022/11/13 02:20:53;;;;;;;;;33.33;28.33;;;;;;;;5053171;28;46222;-78
2022/11/13 02:23:38;;;;;;;;;40.00;31.67;;;;;;;;5052710;28;46141;-77
2022/11/13 02:26:04;;;;;;;;;32.67;30.33;;;;;;;;5071711;28;45446;-78
2022/11/13 02:28:29;;;;;;;;;35.00;28.33;;;;;;;;5062825;28;45721;-77
2022/11/13 02:30:54;;;;;;;;;33.33;31.00;;;;;;;;5076122;28;45921;-78
2022/11/13 02:33:29;;;;;;;;;37.67;30.67;;;;;;;;5076864;28;45871;-78
2022/11/13 02:35:54;;;;;;;;;27.00;27.00;;;;;;;;5077037;28;45540;-78
2022/11/13 02:38:20;;;;;;;;;30.67;27.67;;;;;;;;5075231;28;45837;-80
2022/11/13 02:40:45;;;;;;;;;31.33;28.00;;;;;;;;5075617;28;45875;-78
2022/11/13 02:43:11;;;;;;;;;31.67;28.67;;;;;;;;5075147;28;45884;-78
2022/11/13 02:45:39;;;;;;;;;31.33;28.67;;;;;;;;5056303;28;45746;-79
2022/11/13 02:48:05;;;;;;;;;29.33;28.00;;;;;;;;5055918;28;45466;-78
2022/11/13 02:50:31;;;;;;;;;31.67;27.00;;;;;;;;5073751;28;45559;-78
2022/11/13 02:52:56;;;;;;;;;24.00;21.00;;;;;;;;5055370;28;47246;-78
2022/11/13 02:55:21;;;;;;;;;26.00;22.67;;;;;;;;5074118;28;45746;-78
2022/11/13 02:57:47;;;;;;;;;26.33;23.33;;;;;;;;5055819;28;46249;-79
2022/11/13 03:00:12;;;;;;;;;28.67;27.00;;;;;;;;5074133;28;46001;-78
2022/11/13 03:02:37;;;;;;;;;27.00;26.00;;;;;;;;5074220;28;45567;-78
2022/11/13 03:05:03;;;;;;;;;27.67;25.67;;;;;;;;5056207;28;45707;-78
2022/11/13 03:07:29;;;;;;;;;26.67;25.00;;;;;;;;5075604;28;45546;-79
2022/11/13 03:09:55;;;;;;;;;26.00;24.33;;;;;;;;5058596;28;46231;-75
2022/11/13 03:12:21;;;;;;;;;27.67;25.00;;;;;;;;5078212;28;45566;-78
2022/11/13 03:14:46;;;;;;;;;31.33;26.33;;;;;;;;5075100;28;45402;-79
2022/11/13 03:17:12;;;;;;;;;24.00;22.67;;;;;;;;5074926;28;45347;-80
2022/11/13 03:19:37;;;;;;;;;25.00;24.33;;;;;;;;5067094;28;45529;-81
2022/11/13 03:22:02;;;;;;;;;21.33;19.33;;;;;;;;5031630;28;48582;-78
2022/11/13 03:24:27;;;;;;;;;26.67;21.33;;;;;;;;5068166;28;45369;-78
2022/11/13 03:26:53;;;;;;;;;21.00;17.67;;;;;;;;5056510;28;45354;-76
2022/11/13 03:29:18;;;;;;;;;23.67;23.67;;;;;;;;5074533;28;45732;-77
2022/11/13 03:31:43;;;;;;;;;23.33;21.00;;;;;;;;5055501;28;47005;-76
2022/11/13 03:34:10;;;;;;;;;28.33;24.33;;;;;;;;5071982;28;46029;-77
2022/11/13 03:36:35;;;;;;;;;24.33;21.33;;;;;;;;5073591;28;45799;-77
2022/11/13 03:39:01;;;;;;;;;26.67;23.00;;;;;;;;5073438;28;45393;-76
2022/11/13 03:41:26;;;;;;;;;28.00;25.00;;;;;;;;5055735;28;46056;-79
2022/11/13 03:43:54;;;;;;;;;22.33;21.00;;;;;;;;5074596;28;45792;-78
2022/11/13 03:46:19;;;;;;;;;23.67;22.00;;;;;;;;5056243;28;45592;-78
2022/11/13 03:48:44;;;;;;;;;24.00;20.00;;;;;;;;5039589;28;47563;-77
2022/11/13 03:51:09;;;;;;;;;26.67;23.00;;;;;;;;5056522;28;48128;-78
2022/11/13 03:53:35;;;;;;;;;31.33;26.00;;;;;;;;5057455;28;45458;-77
2022/11/13 03:56:00;;;;;;;;;30.67;24.33;;;;;;;;5059633;28;45413;-76
2022/11/13 03:58:25;;;;;;;;;28.33;26.00;;;;;;;;5077807;28;45552;-79
2022/11/13 04:00:52;;;;;;;;;27.33;24.00;;;;;;;;5076105;28;45475;-79
2022/11/13 04:03:17;;;;;;;;;30.00;23.67;;;;;;;;5077984;28;45772;-78
2022/11/13 04:05:42;;;;;;;;;36.67;27.33;;;;;;;;5061593;28;45671;-78
2022/11/13 04:08:08;;;;;;;;;33.67;27.67;;;;;;;;5071707;28;45716;-79
2022/11/13 04:10:34;;;;;;;;;28.33;27.00;;;;;;;;5080008;28;45354;-77
2022/11/13 04:12:59;;;;;;;;;33.00;26.67;;;;;;;;5086338;28;45394;-77
2022/11/13 04:15:25;;;;;;;;;28.00;23.00;;;;;;;;5080119;28;45728;-77
2022/11/13 04:17:50;;;;;;;;;29.33;25.33;;;;;;;;5079192;28;45735;-77
2022/11/13 04:20:15;;;;;;;;;25.00;19.67;;;;;;;;5074742;28;45788;-78
2022/11/13 04:22:41;;;;;;;;;26.67;25.00;;;;;;;;5073831;28;45647;-78
2022/11/13 04:25:06;;;;;;;;;28.33;24.67;;;;;;;;5074305;28;45520;-78
2022/11/13 04:27:31;;;;;;;;;28.33;24.33;;;;;;;;5073433;28;45767;-77
2022/11/13 04:29:56;;;;;;;;;26.00;21.33;;;;;;;;5074102;28;45596;-77
2022/11/13 04:32:22;;;;;;;;;23.00;22.00;;;;;;;;5056824;28;45317;-78
2022/11/13 04:34:47;;;;;;;;;24.33;23.67;;;;;;;;5059872;28;45910;-77
2022/11/13 04:37:13;;;;;;;;;21.67;19.67;;;;;;;;5075014;28;45939;-78
2022/11/13 04:39:38;;;;;;;;;26.00;23.00;;;;;;;;5073813;28;45430;-77
2022/11/13 04:44:47;;;;;;;;;25.33;24.33;;;;;;;;5073153;28;45523;-78
2022/11/13 04:47:12;;;;;;;;;21.00;19.67;;;;;;;;5054371;28;45867;-77
2022/11/13 04:49:37;;;;;;;;;21.00;19.00;;;;;;;;5072089;28;45790;-78
2022/11/13 04:52:03;;;;;;;;;23.67;20.33;;;;;;;;5068179;28;45699;-77
2022/11/13 04:54:28;;;;;;;;;19.33;19.33;;;;;;;;5070596;27;46305;-77
2022/11/13 04:56:53;;;;;;;;;27.00;22.00;;;;;;;;5070887;28;45668;-76
2022/11/13 04:59:19;;;;;;;;;19.67;19.33;;;;;;;;5054284;28;46326;-76
2022/11/13 05:01:44;;;;;;;;;23.00;21.33;;;;;;;;5069796;28;45548;-77
2022/11/13 05:04:11;;;;;;;;;21.67;17.67;;;;;;;;5071846;28;45483;-79
2022/11/13 05:06:36;;;;;;;;;23.67;22.67;;;;;;;;5073036;28;45789;-78
2022/11/13 05:09:01;;;;;;;;;22.33;21.33;;;;;;;;5072389;28;45439;-78
2022/11/13 05:11:27;;;;;;;;;19.67;18.67;;;;;;;;5050765;28;45347;-78
2022/11/13 05:13:52;;;;;;;;;17.67;16.00;;;;;;;;5051660;28;45460;-79
2022/11/13 05:16:17;;;;;;;;;21.33;20.00;;;;;;;;5054791;28;46375;-79
2022/11/13 05:18:42;;;;;;;;;21.67;20.33;;;;;;;;5072539;28;45332;-80
2022/11/13 05:21:08;;;;;;;;;27.33;21.00;;;;;;;;5072408;28;45686;-79
2022/11/13 05:23:34;;;;;;;;;25.67;23.67;;;;;;;;5071938;28;45515;-79
2022/11/13 05:26:07;;;;;;;;;21.67;18.33;;;;;;;;5056991;28;46764;-78
2022/11/13 05:28:32;;;;;;;;;28.00;21.00;;;;;;;;5055464;28;47120;-77
2022/11/13 05:31:08;;;;;;;;;22.33;20.00;;;;;;;;5055277;28;45343;-78
2022/11/13 05:33:34;;;;;;;;;28.00;21.67;;;;;;;;5067241;28;45769;-77
2022/11/13 05:36:04;;;;;;;;;21.67;18.33;;;;;;;;5059844;28;45651;-78
2022/11/13 05:38:29;;;;;;;;;18.00;15.33;;;;;;;;5070053;28;45793;-79
2022/11/13 05:40:59;;;;;;;;;18.67;18.00;;;;;;;;5067273;28;45487;-79
2022/11/13 05:43:24;;;;;;;;;20.00;16.67;;;;;;;;5069177;28;45452;-79
2022/11/13 05:45:50;;;;;;;;;18.00;18.00;;;;;;;;5054409;28;46314;-79
2022/11/13 05:48:15;;;;;;;;;27.33;22.33;;;;;;;;5069520;28;46053;-78
2022/11/13 05:50:40;;;;;;;;;26.67;21.00;;;;;;;;5073414;28;45682;-78
2022/11/13 05:53:05;;;;;;;;;22.33;19.33;;;;;;;;5075662;27;46441;-78
2022/11/13 05:55:31;;;;;;;;;24.67;22.33;;;;;;;;5081474;27;45600;-79
2022/11/13 05:57:58;;;;;;;;;22.00;18.33;;;;;;;;5073128;28;45381;-78
2022/11/13 06:00:23;;;;;;;;;25.00;20.67;;;;;;;;5088926;27;45543;-79
2022/11/13 06:02:48;;;;;;;;;21.33;20.33;;;;;;;;5061501;28;45507;-79
2022/11/13 06:05:14;;;;;;;;;24.33;23.00;;;;;;;;5062943;28;45908;-79
2022/11/13 06:07:40;;;;;;;;;26.00;20.00;;;;;;;;5079041;28;45429;-78
2022/11/13 06:10:06;;;;;;;;;23.33;18.67;;;;;;;;5083509;28;45401;-78
2022/11/13 06:12:31;;;;;;;;;20.67;18.67;;;;;;;;5073291;27;45698;-79
2022/11/13 06:14:56;;;;;;;;;28.00;24.00;;;;;;;;5071432;28;46155;-79
2022/11/13 06:17:21;;;;;;;;;26.00;24.33;;;;;;;;5055238;28;46814;-77
2022/11/13 06:19:47;;;;;;;;;19.33;18.33;;;;;;;;5074940;28;45422;-80
2022/11/13 06:22:15;;;;;;;;;23.67;21.00;;;;;;;;5052122;28;45453;-82
2022/11/13 06:24:45;;;;;;;;;20.00;20.00;;;;;;;;5074712;28;45627;-82
2022/11/13 06:27:29;;;;;;;;;21.33;15.33;;;;;;;;5083609;28;45517;-83
2022/11/13 06:29:58;;;;;;;;;21.00;21.00;;;;;;;;5074678;28;45866;-86
2022/11/13 06:32:23;;;;;;;;;21.33;21.00;;;;;;;;5080650;28;45032;-84
2022/11/13 06:34:53;;;;;;;;;24.67;20.67;;;;;;;;5072600;28;45503;-84
2022/11/13 06:37:18;;;;;;;;;25.33;23.00;;;;;;;;5058058;28;46962;-82
2022/11/13 06:49:07;;;;;;;;;23.00;18.33;;;;;;;;4974687;28;45426;-80
2022/11/13 06:51:40;;;;;;;;;23.67;19.00;;;;;;;;4974493;28;45792;-80
2022/11/13 06:54:05;;;;;;;;;35.00;32.00;;;;;;;;5042382;28;45394;-82
2022/11/13 06:56:31;;;;;;;;;27.00;23.67;;;;;;;;5054375;28;46079;-79
2022/11/13 06:59:24;;;;;;;;;27.33;20.33;;;;;;;;5054514;28;46873;-80
2022/11/13 07:02:15;;;;;;;;;18.33;18.33;;;;;;;;5050318;28;45835;-80
2022/11/13 07:04:40;;;;;;;;;21.33;17.00;;;;;;;;5053763;28;45445;-82
2022/11/13 07:10:04;;;;;;;;;19.00;18.00;;;;;;;;5037148;28;45815;-81
2022/11/13 07:12:41;;;;;;;;;28.00;24.67;;;;;;;;5050723;27;45568;-81
2022/11/13 07:15:07;;;;;;;;;19.00;19.00;;;;;;;;5058076;28;45464;-81
2022/11/13 07:17:49;;;;;;;;;22.67;20.33;;;;;;;;5062516;28;46654;-80
2022/11/13 07:20:16;;;;;;;;;21.00;19.67;;;;;;;;5055929;28;47403;-81
2022/11/13 07:22:41;;;;;;;;;24.33;20.00;;;;;;;;5057613;27;45710;-79
2022/11/13 07:25:50;;;;;;;;;22.00;20.33;;;;;;;;5056318;28;46161;-81
2022/11/13 07:28:00;;;;;;;;;23.67;21.00;;;;;;;;5057567;27;45852;-80
2022/11/13 07:30:25;;;;;;;;;20.00;20.00;;;;;;;;5055835;28;45807;-80
2022/11/13 07:32:51;;;;;;;;;45.75;34.00;;;;;;;;5058263;27;45968;-81
2022/11/13 07:35:18;;;;;;;;;25.00;20.00;;;;;;;;5047774;28;45540;-81
2022/11/13 07:38:02;;;;;;;;;26.00;23.67;;;;;;;;5051324;27;45474;-81
2022/11/13 07:40:37;;;;;;;;;24.33;23.67;;;;;;;;5053386;28;45877;-81
2022/11/13 07:43:03;;;;;;;;;20.67;19.00;;;;;;;;5042685;28;46119;-81
2022/11/13 07:45:28;;;;;;;;;22.33;20.67;;;;;;;;5053072;28;44886;-80
2022/11/13 07:48:01;;;;;;;;;20.33;17.33;;;;;;;;5051686;28;46231;-81
2022/11/13 07:50:30;;;;;;;;;27.67;25.00;;;;;;;;5047015;28;47114;-82
2022/11/13 07:53:00;;;;;;;;;22.67;22.67;;;;;;;;5050439;27;45921;-81
2022/11/13 07:55:27;;;;;;;;;21.00;20.00;;;;;;;;5048810;28;45421;-82
2022/11/13 07:57:57;;;;;;;;;20.00;19.00;;;;;;;;5048735;28;45856;-83
2022/11/13 08:00:23;;;;;;;;;21.33;18.33;;;;;;;;5046764;28;45457;-81
2022/11/13 08:02:49;;;;;;;;;20.33;18.67;;;;;;;;5050772;28;45952;-83
2022/11/13 08:05:16;;;;;;;;;23.67;22.00;;;;;;;;5050704;28;45818;-81
2022/11/13 08:07:42;;;;;;;;;22.67;19.67;;;;;;;;5052227;28;45535;-80
2022/11/13 08:10:08;;;;;;;;;24.00;23.00;;;;;;;;5044750;28;45508;-83
2022/11/13 08:12:33;;;;;;;;;22.00;19.00;;;;;;;;5052061;28;45837;-82
2022/11/13 08:14:59;;;;;;;;;23.33;21.00;;;;;;;;5048489;27;45900;-81
2022/11/13 08:17:24;;;;;;;;;21.33;18.67;;;;;;;;5051312;28;45611;-80
2022/11/13 08:19:49;;;;;;;;;24.00;20.67;;;;;;;;5052582;28;46192;-82
2022/11/13 08:22:15;;;;;;;;;21.00;19.33;;;;;;;;5055097;28;45566;-80
2022/11/13 08:24:41;;;;;;;;;29.00;24.33;;;;;;;;5047045;28;45489;-81
2022/11/13 08:27:08;;;;;;;;;26.67;22.33;;;;;;;;5052133;28;46355;-80
2022/11/13 08:29:36;;;;;;;;;21.00;19.67;;;;;;;;5054835;28;46110;-81
2022/11/13 08:32:01;;;;;;;;;25.67;24.00;;;;;;;;5052372;27;45603;-81
2022/11/13 08:34:27;;;;;;;;;24.00;21.67;;;;;;;;5047913;28;45762;-80
2022/11/13 08:36:53;;;;;;;;;31.00;23.33;;;;;;;;5053406;27;45979;-79
2022/11/13 08:39:19;;;;;;;;;27.67;25.00;;;;;;;;5049756;28;45702;-78
2022/11/13 08:41:44;;;;;;;;;28.33;27.33;;;;;;;;5050913;27;45805;-79
2022/11/13 08:44:11;;;;;;;;;29.67;25.67;;;;;;;;5052095;28;45552;-78
2022/11/13 08:46:36;;;;;;;;;19.33;18.33;;;;;;;;5051958;27;45976;-76
2022/11/13 08:49:02;;;;;;;;;30.67;24.67;;;;;;;;5048603;28;46965;-79
2022/11/13 08:51:27;;;;;;;;;27.67;25.00;;;;;;;;5051986;27;45798;-79
2022/11/13 08:54:00;;;;;;;;;29.67;24.00;;;;;;;;5056756;28;45393;-80
2022/11/13 08:56:27;;;;;;;;;23.33;23.33;;;;;;;;5067055;28;45472;-79
2022/11/13 08:58:53;;;;;;;;;24.33;22.67;;;;;;;;5076235;28;46822;-79
2022/11/13 09:01:21;;;;;;;;;23.00;19.33;;;;;;;;5055051;28;45775;-81
2022/11/13 09:03:47;;;;;;;;;24.00;22.00;;;;;;;;5049389;28;45811;-77
2022/11/13 09:06:19;;;;;;;;;31.33;26.00;;;;;;;;5069644;28;45559;-81
2022/11/13 09:08:55;;;;;;;;;28.67;23.33;;;;;;;;5070940;28;45750;-78
2022/11/13 09:11:21;;;;;;;;;33.33;30.67;;;;;;;;5049569;28;45556;-75
2022/11/13 09:13:46;;;;;;;;;29.33;23.33;;;;;;;;5047620;28;45906;-80
2022/11/13 09:16:12;;;;;;;;;23.33;20.67;;;;;;;;5072775;28;45372;-81
2022/11/13 09:18:55;;;;;;;;;21.33;20.00;;;;;;;;5076088;27;45795;-81
2022/11/13 09:21:20;;;;;;;;;69.50;50.00;;;;;;;;5075599;27;45393;-80
2022/11/13 09:23:45;;;;;;;;;35.00;29.00;;;;;;;;5073821;27;45675;-79
2022/11/13 09:26:11;;;;;;;;;28.00;22.67;;;;;;;;5055046;28;46092;-82
2022/11/13 09:28:36;;;;;;;;;24.67;23.33;;;;;;;;5054823;28;47187;-79
2022/11/13 09:31:05;;;;;;;;;22.67;19.33;;;;;;;;5073859;27;45522;-81
2022/11/13 09:33:31;;;;;;;;;21.33;20.00;;;;;;;;5054035;28;45560;-84
2022/11/13 09:35:57;;;;;;;;;24.00;21.33;;;;;;;;5079573;27;45545;-83
2022/11/13 09:38:23;;;;;;;;;24.00;22.00;;;;;;;;5058484;27;48019;-82
2022/11/13 09:41:08;;;;;;;;;22.67;22.33;;;;;;;;5078551;28;45331;-85
2022/11/13 09:43:55;;;;;;;;;26.00;21.67;;;;;;;;5050402;28;46011;-80
2022/11/13 09:46:26;;;;;;;;;22.00;18.33;;;;;;;;5073098;28;45588;-80
2022/11/13 09:48:54;;;;;;;;;33.50;30.50;;;;;;;;5074312;28;45322;-79
2022/11/13 09:51:23;;;;;;;;;24.33;20.33;;;;;;;;5057739;28;45418;-80
2022/11/13 09:53:49;;;;;;;;;25.67;23.67;;;;;;;;5073028;27;45947;-79
2022/11/13 09:56:34;;;;;;;;;27.67;26.33;;;;;;;;5071683;28;45834;-79
2022/11/13 09:59:15;;;;;;;;;24.00;22.33;;;;;;;;5074211;28;46469;-80
2022/11/13 10:01:49;;;;;;;;;24.00;22.67;;;;;;;;5071826;28;45769;-82
2022/11/13 10:04:18;;;;;;;;;24.33;24.33;;;;;;;;5075424;28;45832;-81
2022/11/13 10:07:04;;;;;;;;;30.00;24.67;;;;;;;;5063180;28;46910;-79
2022/11/13 10:09:37;;;;;;;;;27.00;23.00;;;;;;;;5020580;28;47739;-81
2022/11/13 10:12:07;;;;;;;;;26.33;22.33;;;;;;;;5052343;28;46139;-81
2022/11/13 10:14:38;;;;;;;;;28.33;23.67;;;;;;;;5069222;28;45584;-82
2022/11/13 10:17:13;;;;;;;;;25.67;24.00;;;;;;;;5048206;28;45956;-79
2022/11/13 10:19:41;;;;;;;;;26.00;23.67;;;;;;;;5056919;28;47082;-82
2022/11/13 10:22:19;;;;;;;;;27.33;23.67;;;;;;;;5067924;28;45512;-82
2022/11/13 10:24:45;;;;;;;;;49.67;38.00;;;;;;;;5072809;28;45200;-81
2022/11/13 10:27:11;;;;;;;;;22.67;22.33;;;;;;;;5077595;28;45833;-82
2022/11/13 10:29:36;;;;;;;;;28.33;26.67;;;;;;;;5073691;28;45501;-81
2022/11/13 10:32:22;;;;;;;;;30.67;25.33;;;;;;;;5056209;28;45825;-81
2022/11/13 10:34:49;;;;;;;;;32.67;27.00;;;;;;;;5045758;28;45841;-83
2022/11/13 10:37:18;;;;;;;;;23.00;22.00;;;;;;;;5074556;28;45520;-80
2022/11/13 10:39:44;;;;;;;;;30.00;26.00;;;;;;;;5049515;28;47131;-81
2022/11/13 10:42:22;;;;;;;;;27.00;23.67;;;;;;;;5050116;28;45465;-80
2022/11/13 10:44:52;;;;;;;;;29.33;24.67;;;;;;;;5052329;28;45557;-81
2022/11/13 10:47:19;;;;;;;;;27.33;26.00;;;;;;;;5077926;28;45473;-79
2022/11/13 10:49:44;;;;;;;;;30.67;29.00;;;;;;;;5070931;28;47186;-83
2022/11/13 10:52:30;;;;;;;;;29.67;27.33;;;;;;;;5059393;28;45750;-81
2022/11/13 10:55:11;;;;;;;;;30.33;26.67;;;;;;;;5076992;27;45388;-83
2022/11/13 10:57:36;;;;;;;;;24.67;23.33;;;;;;;;5076975;28;45678;-84
2022/11/13 11:00:17;;;;;;;;;28.67;26.00;;;;;;;;5056607;27;47333;-81
2022/11/13 11:02:47;;;;;;;;;30.67;28.00;;;;;;;;5063062;28;45370;-83
2022/11/13 11:05:17;;;;;;;;;22.33;22.33;;;;;;;;5070962;28;45775;-81
2022/11/13 11:07:43;;;;;;;;;29.33;28.00;;;;;;;;5076338;27;45639;-83
2022/11/13 11:10:23;;;;;;;;;50.33;41.00;;;;;;;;5053958;28;46971;-79
2022/11/13 11:12:56;;;;;;;;;31.67;28.00;;;;;;;;5061050;28;45844;-84
2022/11/13 11:15:28;;;;;;;;;28.00;22.00;;;;;;;;5079610;28;45394;-85
2022/11/13 11:17:58;;;;;;;;;28.33;23.67;;;;;;;;5050187;28;45963;-78
2022/11/13 11:20:35;;;;;;;;;30.33;25.00;;;;;;;;5064857;28;45754;-82
2022/11/13 11:23:16;;;;;;;;;29.33;21.67;;;;;;;;5078909;27;46057;-83
2022/11/13 11:25:45;;;;;;;;;22.00;19.33;;;;;;;;5071650;27;45866;-81
2022/11/13 11:28:21;;;;;;;;;27.33;25.00;;;;;;;;5069664;28;45682;-81
2022/11/13 11:30:51;;;;;;;;;29.33;26.67;;;;;;;;5076937;28;45401;-80
2022/11/13 11:33:16;;;;;;;;;31.33;29.00;;;;;;;;5075546;28;45362;-84
2022/11/13 11:36:01;;;;;;;;;36.33;31.33;;;;;;;;5062373;28;45524;-83
2022/11/13 11:38:26;;;;;;;;;29.67;27.67;;;;;;;;5065307;28;45804;-84
2022/11/13 11:40:54;;;;;;;;;36.00;32.67;;;;;;;;5054574;28;47337;-81
2022/11/13 11:43:38;;;;;;;;;34.00;25.67;;;;;;;;5060727;28;45611;-85
2022/11/13 11:46:04;;;;;;;;;27.33;26.33;;;;;;;;5064705;28;45545;-83
2022/11/13 11:48:30;;;;;;;;;31.67;29.00;;;;;;;;5087783;28;45633;-83
2022/11/13 11:51:05;;;;;;;;;30.33;27.67;;;;;;;;5079225;28;45402;-86
2022/11/13 11:54:10;;;;;;;;;37.00;32.33;;;;;;;;5078964;28;45704;-80
2022/11/13 11:56:37;;;;;;;;;36.00;31.33;;;;;;;;5072432;27;45771;-81
2022/11/13 11:59:21;;;;;;;;;42.33;35.33;;;;;;;;5070919;28;45535;-81
2022/11/13 12:02:11;;;;;;;;;39.33;33.00;;;;;;;;5077400;28;46339;-81
2022/11/13 12:04:51;;;;;;;;;38.00;33.00;;;;;;;;5076453;28;45853;-82
2022/11/13 12:07:37;;;;;;;;;31.67;30.00;;;;;;;;5054463;28;45667;-82
2022/11/13 12:10:21;;;;;;;;;38.33;33.67;;;;;;;;5056572;28;45765;-81
2022/11/13 12:13:18;;;;;;;;;;;;;;;;;;;;;
2022/11/13 12:19:25;;;;;;;;;;;;;;;;;;;;;
2022/11/13 12:31:44;;;;;;;;;37.67;36.33;;;;;;;;4984111;28;46257;-83
2022/11/13 12:34:46;;;;;;;;;32.67;31.67;;;;;;;;5093153;27;45407;-87
2022/11/13 12:37:32;;;;;;;;;45.00;36.33;;;;;;;;5077810;28;45070;-88
2022/11/13 12:43:32;;;;;;;;;44.00;35.33;;;;;;;;5062359;28;45563;-85
2022/11/13 12:46:02;;;;;;;;;45.67;34.00;;;;;;;;5066989;27;44934;-85
2022/11/13 12:48:33;;;;;;;;;34.00;28.33;;;;;;;;5068140;28;45770;-86
2022/11/13 12:51:00;;;;;;;;;35.67;31.67;;;;;;;;5082630;27;45004;-87
2022/11/13 12:53:44;;;;;;;;;36.67;30.67;;;;;;;;5083879;28;45402;-88
2022/11/13 12:56:17;;;;;;;;;47.50;37.50;;;;;;;;5076575;27;45745;-88
2022/11/13 12:58:58;;;;;;;;;45.00;35.33;;;;;;;;5077577;28;45746;-86
2022/11/13 13:01:25;;;;;;;;;42.67;33.33;;;;;;;;5060247;28;46010;-83
2022/11/13 13:04:09;;;;;;;;;40.33;32.00;;;;;;;;5064983;28;44799;-82
2022/11/13 13:06:41;;;;;;;;;34.00;32.33;;;;;;;;5072614;28;46703;-84
2022/11/13 13:09:25;;;;;;;;;31.67;31.33;;;;;;;;5081607;28;46404;-85
2022/11/13 13:12:06;;;;;;;;;41.33;34.00;;;;;;;;5056151;28;45447;-79
2022/11/13 13:14:31;;;;;;;;;33.67;28.00;;;;;;;;5054899;28;45620;-80
2022/11/13 13:17:19;;;;;;;;;38.00;32.67;;;;;;;;5071943;28;45457;-79
2022/11/13 13:19:55;;;;;;;;;37.33;32.33;;;;;;;;5078717;28;45564;-85
2022/11/13 13:22:31;;;;;;;;;39.00;34.67;;;;;;;;5075640;28;45741;-85
2022/11/13 13:24:59;;;;;;;;;40.33;32.00;;;;;;;;5071284;27;45666;-86
2022/11/13 13:27:26;;;;;;;;;35.67;30.00;;;;;;;;5072428;28;47043;-86
2022/11/13 13:29:52;;;;;;;;;24.67;21.33;;;;;;;;5055249;28;47875;-84
2022/11/13 13:32:17;;;;;;;;;32.33;30.00;;;;;;;;5077332;28;45537;-80
2022/11/13 13:34:45;;;;;;;;;43.33;35.00;;;;;;;;5075542;28;45516;-80
2022/11/13 13:37:24;;;;;;;;;34.67;32.33;;;;;;;;5075092;28;45628;-79
2022/11/13 13:40:08;;;;;;;;;38.67;32.33;;;;;;;;5067132;28;46109;-80
2022/11/13 13:42:53;;;;;;;;;37.33;32.33;;;;;;;;5063767;28;45374;-81
2022/11/13 13:45:19;;;;;;;;;32.67;29.00;;;;;;;;5055714;28;45735;-80
2022/11/13 13:47:46;;;;;;;;;31.33;28.67;;;;;;;;5058092;28;46092;-82
2022/11/13 13:50:16;;;;;;;;;30.33;30.00;;;;;;;;5051971;28;47174;-79
2022/11/13 13:52:42;;;;;;;;;37.33;31.00;;;;;;;;5063585;28;45388;-81
2022/11/13 13:55:14;;;;;;;;;32.33;27.67;;;;;;;;5073906;27;45370;-80
2022/11/13 13:57:41;;;;;;;;;34.67;27.67;;;;;;;;5072229;28;45421;-81
2022/11/13 14:00:13;;;;;;;;;28.00;26.67;;;;;;;;5043059;28;47620;-82
2022/11/13 14:02:50;;;;;;;;;29.33;27.00;;;;;;;;5055707;28;45531;-80
2022/11/13 14:05:24;;;;;;;;;29.00;27.67;;;;;;;;5072671;28;45669;-80
2022/11/13 14:07:49;;;;;;;;;28.67;26.33;;;;;;;;5071324;28;46256;-79
2022/11/13 14:10:16;;;;;;;;;34.00;30.00;;;;;;;;5064342;28;45521;-80
2022/11/13 14:12:45;;;;;;;;;0.00;0.00;;;;;;;;5072167;28;45441;-87
2022/11/13 14:15:32;;;;;;;;;24.00;22.67;;;;;;;;5063114;28;45429;-80
2022/11/13 14:18:13;;;;;;;;;28.00;24.67;;;;;;;;5068625;27;45299;-81
2022/11/13 14:20:44;;;;;;;;;31.33;27.00;;;;;;;;5046871;28;47180;-81
2022/11/13 14:23:11;;;;;;;;;31.67;26.67;;;;;;;;5074247;28;47176;-80
2022/11/13 14:25:40;;;;;;;;;22.33;20.00;;;;;;;;5073839;28;45806;-81
2022/11/13 14:28:11;;;;;;;;;28.00;27.67;;;;;;;;5066931;28;45531;-78
2022/11/13 14:30:36;;;;;;;;;32.00;27.33;;;;;;;;5046264;28;45625;-79
2022/11/13 14:33:05;;;;;;;;;25.33;23.33;;;;;;;;5068838;28;45551;-79
2022/11/13 14:35:30;;;;;;;;;27.67;25.00;;;;;;;;5076594;28;45493;-81
2022/11/13 14:37:56;;;;;;;;;35.00;28.00;;;;;;;;5071938;28;45889;-80
2022/11/13 14:40:25;;;;;;;;;24.33;20.67;;;;;;;;5075428;28;45785;-85
2022/11/13 14:43:17;;;;;;;;;27.67;24.67;;;;;;;;5078898;28;45693;-85
2022/11/13 14:45:52;;;;;;;;;29.33;24.00;;;;;;;;5052476;27;45502;-83
2022/11/13 14:48:25;;;;;;;;;26.00;22.67;;;;;;;;5074524;27;45255;-84
2022/11/13 14:51:16;;;;;;;;;29.67;23.33;;;;;;;;5063559;28;46837;-83
2022/11/13 14:53:42;;;;;;;;;29.00;23.67;;;;;;;;5057751;28;45515;-85
2022/11/13 14:56:09;;;;;;;;;28.33;24.00;;;;;;;;5058081;28;45761;-84
2022/11/13 14:58:38;;;;;;;;;23.00;22.00;;;;;;;;5062200;28;45507;-84
2022/11/13 15:01:21;;;;;;;;;21.00;18.67;;;;;;;;5059851;28;47114;-83
2022/11/13 15:03:48;;;;;;;;;29.33;26.00;;;;;;;;5061539;28;45772;-84
2022/11/13 15:06:55;;;;;;;;;;;;;;;;;;;;;